Terminal Aerodrome Forecast
Issued by NWS Cleveland, OH

Home | Current Version | Previous Version | Text Only | Print | Product List | Glossary On
Versions: 1 2 3 4 5 6 7 8 9 10 11 12 13 14 15 16 17 18 19
000
FTUS41 KCLE 311100
TAFMFD
TAF
KMFD 311140Z 3112/0112 21005KT P6SM FEW050
      TEMPO 3112/3113 5SM BR SCT060
     FM312100 25007KT P6SM SCT045
     FM011000 00000KT 5SM BR FEW003=

USA.gov is the U.S. government's official web portal to all federal, state and local government web resources and services.